»·PEaware :: N25DD KCMA-KSNA

N25DD :: KCMA-KSNA

FLIGHT INFORMATION

Flight Status: Arrived
Operator: Privately registered:
United States
More flights under this callsign
Pilot: Anonymous 25095 (25095)
Aircraft: CESSNA 172 SKYHAWK
(C172)
More flights by this aircraft type
Origin: KCMA Camarillo
United States
Destination: KSNA John Wayne-Orange Co
United States
More flights between these airports :: More routes between these airports
Route: +
File this flight plan on PilotEdge
Remarks: CAT10
Altitude:
(Current/Filed)
0ft
Speed:
(Current/Filed)
0kts
Departed: 12-Nov-19 07:31 PM
Arrived: 12-Nov-19 08:17 PM
Distance/Time
Traveled:
69nm/0:46
Distance/Time
To Go:
Arrived

Flight Plot

Page will automatically refresh every two minutes.


Map Options




Map Legend


Flown Route
Filed Route
Departure Airport
Arrival Airport
Navaid (VOR, NDB)
Fix

Horizontal Profiles

Position Reports

Time Latitude Longitude Heading Altitude Ground
Speed
12-Nov-19 19:24 34.210583 -119.078155 358 81ft 0kts
12-Nov-19 19:25 34.210583 -119.078155 358 81ft 0kts
12-Nov-19 19:26 34.210583 -119.078155 358 81ft 0kts
12-Nov-19 19:27 34.210904 -119.080509 268 81ft 17kts
12-Nov-19 19:28 34.211142 -119.084597 346 81ft 4kts
12-Nov-19 19:29 34.212621 -119.084620 0 81ft 0kts
12-Nov-19 19:30 34.213706 -119.084951 264 81ft 0kts
12-Nov-19 19:31 34.212792 -119.103287 268 420ft 83kts
12-Nov-19 19:32 34.222109 -119.119640 35 1092ft 85kts
12-Nov-19 19:33 34.227412 -119.085255 99 1262ft 120kts
12-Nov-19 19:34 34.218546 -119.051071 94 2081ft 84kts
12-Nov-19 19:35 34.219148 -119.024492 86 2779ft 78kts
12-Nov-19 19:36 34.219888 -118.998910 86 3435ft 73kts
12-Nov-19 19:36 34.220347 -118.978618 86 3914ft 73kts
12-Nov-19 19:38 34.220820 -118.949872 85 4569ft 73kts
12-Nov-19 19:38 34.221034 -118.929322 85 5031ft 73kts
12-Nov-19 19:39 34.221181 -118.904063 86 5477ft 86kts
12-Nov-19 19:40 34.221516 -118.870288 86 5475ft 105kts
12-Nov-19 19:42 34.218882 -118.827424 91 5474ft 115kts
12-Nov-19 19:42 34.216633 -118.795144 91 5474ft 116kts
12-Nov-19 19:43 34.213887 -118.756304 91 5474ft 116kts
12-Nov-19 19:45 34.210856 -118.711365 91 5474ft 117kts
12-Nov-19 19:45 34.208761 -118.678969 91 5474ft 117kts
12-Nov-19 19:46 34.201634 -118.640753 109 5474ft 119kts
12-Nov-19 19:47 34.189202 -118.604353 109 5474ft 119kts
12-Nov-19 19:48 34.176327 -118.568094 110 5473ft 119kts
12-Nov-19 19:49 34.155817 -118.539042 156 5466ft 124kts
12-Nov-19 19:50 34.123680 -118.524491 154 5464ft 123kts
12-Nov-19 19:51 34.091936 -118.509466 154 5464ft 122kts
12-Nov-19 19:52 34.060387 -118.494163 153 5464ft 122kts
12-Nov-19 19:53 34.028942 -118.478795 154 5464ft 123kts
12-Nov-19 19:54 33.997637 -118.463710 153 5464ft 123kts
12-Nov-19 19:55 33.968948 -118.449435 153 5464ft 123kts
12-Nov-19 19:56 33.936733 -118.433514 153 5464ft 124kts
12-Nov-19 19:57 33.910095 -118.408789 131 5463ft 121kts
12-Nov-19 19:58 33.886182 -118.381499 133 5458ft 122kts
12-Nov-19 19:59 33.861494 -118.354095 133 5454ft 122kts
12-Nov-19 20:00 33.839762 -118.330360 134 5451ft 123kts
12-Nov-19 20:01 33.812186 -118.300398 134 5448ft 123kts
12-Nov-19 20:02 33.786901 -118.272938 134 5446ft 123kts
12-Nov-19 20:03 33.761389 -118.245282 135 5446ft 123kts
12-Nov-19 20:04 33.750198 -118.209897 98 5449ft 118kts
12-Nov-19 20:05 33.742055 -118.169687 102 5118ft 134kts
12-Nov-19 20:06 33.732269 -118.124994 102 4512ft 140kts
12-Nov-19 20:07 33.722434 -118.080231 102 3899ft 138kts
12-Nov-19 20:08 33.712793 -118.036336 103 3298ft 136kts
12-Nov-19 20:09 33.703117 -117.992401 103 2694ft 135kts
12-Nov-19 20:10 33.694441 -117.952473 103 2097ft 122kts
12-Nov-19 20:11 33.686628 -117.915075 104 1630ft 107kts
12-Nov-19 20:12 33.686890 -117.880639 38 1121ft 101kts
12-Nov-19 20:13 33.708245 -117.865828 59 882ft 92kts
12-Nov-19 20:14 33.694827 -117.857522 198 522ft 72kts
12-Nov-19 20:15 33.679229 -117.866495 207 60ft 51kts
12-Nov-19 20:16 33.674350 -117.868438 147 60ft 2kts
12-Nov-19 20:17 33.673521 -117.865593 101 60ft 0kts

Navigation Log

Ident Type
Flight plan parsing failed, navigation log unavailable